Time;durP1;ratioP1;P1;durP2;ratioP2;P2;SDS_P1;SDS_P2;PMS_P1;PMS_P2;Temp;Humidity;BMP_temperature;BMP_pressure;BME280_temperature;BME280_humidity;BME280_pressure;Samples;Min_cycle;Max_cycle;Signal;HPM_P1;HPM_P2
2021/07/26 00:02:17;;;;;;;9.83;7.60;;;16.40;99.90;;;17.50;77.65;93892.16;5025346;28;20195;-73
2021/07/26 00:04:43;;;;;;;7.93;7.20;;;16.40;99.90;;;17.44;77.79;93880.78;5026238;28;20974;-72
2021/07/26 00:07:11;;;;;;;8.37;7.17;;;16.40;99.90;;;17.39;77.61;93891.66;5007670;28;20245;-72
2021/07/26 00:09:37;;;;;;;9.87;7.17;;;16.40;99.90;;;17.40;77.83;93891.31;5027477;28;20628;-73
2021/07/26 00:12:05;;;;;;;8.53;7.50;;;16.30;99.90;;;17.47;78.12;93904.28;5026540;28;20275;-72
2021/07/26 00:14:34;;;;;;;7.93;7.17;;;16.40;99.90;;;17.46;78.00;93904.63;5009765;28;20204;-72
2021/07/26 00:17:00;;;;;;;7.37;6.17;;;16.40;99.90;;;17.42;77.87;93910.59;5018760;28;20210;-73
2021/07/26 00:19:26;;;;;;;7.27;6.47;;;16.40;99.90;;;17.38;77.33;93903.47;5025334;28;20195;-72
2021/07/26 00:21:53;;;;;;;6.70;6.10;;;16.40;99.90;;;17.33;77.87;93919.63;5021264;28;20205;-73
2021/07/26 00:24:19;;;;;;;7.90;6.03;;;16.30;99.90;;;17.36;77.91;93925.19;5007327;28;20200;-72
2021/07/26 00:26:46;;;;;;;6.70;6.00;;;16.20;99.90;;;17.26;78.08;93936.16;5022056;28;20199;-72
2021/07/26 00:29:14;;;;;;;9.30;7.00;;;16.30;99.90;;;17.19;77.82;93937.69;5027655;28;20187;-72
2021/07/26 00:31:43;;;;;;;11.93;7.27;;;16.50;99.90;;;17.20;77.97;93947.28;5024525;28;20281;-72
2021/07/26 00:34:28;;;;;;;7.80;7.07;;;16.40;99.90;;;17.27;78.22;93953.81;5023291;28;20194;-72
2021/07/26 00:37:01;;;;;;;7.53;6.77;;;16.50;99.90;;;17.18;77.92;93934.22;5023188;28;20192;-72
2021/07/26 00:39:30;;;;;;;9.47;7.23;;;16.30;99.90;;;17.22;78.36;93935.19;5041749;28;20207;-72
2021/07/26 00:41:59;;;;;;;7.90;7.20;;;16.20;99.90;;;17.24;77.98;93943.72;5025611;28;20196;-71
2021/07/26 00:44:28;;;;;;;10.27;6.87;;;16.20;99.90;;;17.25;78.26;93958.69;5031302;28;20509;-72
2021/07/26 00:46:56;;;;;;;7.77;6.90;;;16.20;99.90;;;17.27;78.45;93953.00;5025536;28;20184;-70
2021/07/26 00:49:23;;;;;;;8.30;7.50;;;16.20;99.90;;;17.23;78.04;93944.00;5024876;28;20183;-71
2021/07/26 00:51:57;;;;;;;8.80;6.83;;;16.30;99.90;;;17.20;78.49;93941.94;5024910;28;20703;-71
2021/07/26 00:54:38;;;;;;;7.87;7.13;;;16.20;99.90;;;17.26;78.82;93944.19;5021606;28;20226;-72
2021/07/26 00:57:06;;;;;;;7.53;6.83;;;16.20;99.90;;;17.17;78.22;93937.97;5032087;28;20225;-71
2021/07/26 00:59:34;;;;;;;9.47;7.37;;;16.10;99.90;;;17.15;78.53;93937.50;5021998;28;20272;-70
2021/07/26 01:02:00;;;;;;;8.37;7.20;;;16.10;99.90;;;17.04;78.39;93925.44;5025274;28;20971;-71
2021/07/26 01:04:27;;;;;;;9.00;8.07;;;16.00;99.90;;;17.05;78.45;93940.41;5008435;28;20188;-72
2021/07/26 01:06:57;;;;;;;9.73;8.73;;;15.90;99.90;;;17.05;78.59;93923.56;5023650;28;20229;-71
2021/07/26 01:09:26;;;;;;;11.80;9.33;;;15.90;99.90;;;17.08;78.48;93939.81;5023581;28;20239;-73
2021/07/26 01:11:52;;;;;;;11.07;9.73;;;15.90;99.90;;;17.11;78.77;93920.44;5025422;28;20241;-73
2021/07/26 01:14:18;;;;;;;11.00;9.73;;;15.90;99.90;;;17.10;78.51;93918.06;5022019;28;20879;-71
2021/07/26 01:16:48;;;;;;;11.63;9.73;;;15.90;99.90;;;17.14;78.54;93927.88;5027892;28;20210;-71
2021/07/26 01:19:15;;;;;;;11.20;10.07;;;16.00;99.90;;;17.08;78.85;93928.31;5023724;28;20224;-73
2021/07/26 01:21:44;;;;;;;10.83;9.73;;;16.00;99.90;;;17.13;78.70;93939.69;5025718;28;20193;-70
2021/07/26 01:24:10;;;;;;;11.17;9.30;;;15.90;99.90;;;17.16;78.49;93924.88;5024781;28;20203;-70
2021/07/26 01:26:36;;;;;;;10.10;9.17;;;16.00;99.90;;;17.10;78.74;93923.41;5007963;28;20193;-71
2021/07/26 01:29:07;;;;;;;8.70;7.90;;;16.00;99.90;;;17.10;78.89;93937.59;5024813;28;20231;-72
2021/07/26 01:31:33;;;;;;;8.93;8.13;;;16.00;99.90;;;17.04;78.65;93938.03;5010428;28;20190;-71
2021/07/26 01:34:00;;;;;;;9.30;8.40;;;15.90;99.90;;;16.99;78.84;93938.94;5010364;28;20249;-72
2021/07/26 01:36:27;;;;;;;9.50;8.60;;;15.90;99.90;;;17.05;78.97;93937.75;5027116;28;20668;-71
2021/07/26 01:38:53;;;;;;;11.97;9.40;;;15.90;99.90;;;17.06;78.97;93938.50;5028718;28;20236;-71
2021/07/26 01:41:23;;;;;;;11.30;9.50;;;16.00;99.90;;;17.07;78.94;93935.53;5005070;28;20738;-72
2021/07/26 01:44:10;;;;;;;11.40;10.13;;;15.90;99.90;;;17.06;79.05;93951.91;5011615;28;20633;-71
2021/07/26 01:47:02;;;;;;;10.07;9.07;;;16.00;99.90;;;17.08;79.13;93957.75;5039944;28;20197;-72
2021/07/26 01:49:51;;;;;;;10.13;9.13;;;15.90;99.90;;;17.14;78.77;93949.31;5009536;28;20264;-71
2021/07/26 01:52:21;;;;;;;10.37;8.70;;;16.00;99.90;;;17.08;79.13;93953.19;5025196;28;20209;-72
2021/07/26 01:54:48;;;;;;;10.80;9.70;;;15.90;99.90;;;17.03;79.15;93942.59;5030379;28;20299;-73
2021/07/26 01:57:14;;;;;;;10.93;9.90;;;15.80;99.90;;;16.97;79.18;93940.34;5027588;28;20193;-73
2021/07/26 01:59:43;;;;;;;9.90;8.90;;;15.80;99.90;;;17.04;79.07;93956.78;5031217;28;20198;-72
2021/07/26 02:02:13;;;;;;;12.00;10.07;;;15.80;99.90;;;17.03;79.03;93957.88;5011363;28;20625;-72
2021/07/26 02:04:40;;;;;;;11.43;10.23;;;15.80;99.90;;;17.07;79.07;93962.31;5027135;28;20213;-71
2021/07/26 02:07:08;;;;;;;10.43;9.40;;;15.80;99.90;;;17.03;79.29;93965.91;5027510;28;20212;-72
2021/07/26 02:09:36;;;;;;;11.37;10.27;;;15.90;99.90;;;17.03;79.37;93972.03;5042940;28;20205;-71
2021/07/26 02:12:08;;;;;;;11.70;10.50;;;15.90;99.90;;;17.06;79.22;93973.31;5025649;28;20696;-71
2021/07/26 02:14:34;;;;;;;13.37;11.97;;;15.90;99.90;;;17.05;79.71;93953.81;5026859;28;20523;-72
2021/07/26 02:17:00;;;;;;;14.57;12.10;;;15.90;99.90;;;16.99;79.43;93946.97;5009564;28;20257;-72
2021/07/26 02:19:31;;;;;;;13.97;12.57;;;15.80;99.90;;;17.00;79.61;93942.41;5027053;28;20191;-74
2021/07/26 02:21:57;;;;;;;12.33;11.13;;;15.80;99.90;;;16.93;79.38;93940.16;5010692;28;20659;-73
2021/07/26 02:24:23;;;;;;;12.47;10.80;;;15.80;99.90;;;16.91;79.45;93948.50;5010539;28;20292;-72
2021/07/26 02:26:49;;;;;;;14.27;11.47;;;15.70;99.90;;;16.86;79.70;93934.41;5028212;28;20262;-72
2021/07/26 02:29:15;;;;;;;13.50;10.90;;;15.30;99.90;;;16.74;79.56;93934.16;5026558;28;20603;-73
2021/07/26 02:31:44;;;;;;;12.63;11.43;;;15.50;99.90;;;16.80;79.26;93946.34;5021395;28;20198;-71
2021/07/26 02:34:13;;;;;;;13.70;12.40;;;15.30;99.90;;;16.81;79.72;93947.94;5022985;28;20204;-72
2021/07/26 02:36:39;;;;;;;13.17;11.77;;;15.70;99.90;;;16.78;79.49;93935.16;5027145;28;20209;-72
2021/07/26 02:39:05;;;;;;;13.30;12.00;;;15.70;99.90;;;16.72;79.68;93936.34;5025998;28;20231;-71
2021/07/26 02:41:36;;;;;;;13.77;12.37;;;15.80;99.90;;;16.75;79.96;93930.41;5024735;28;20197;-71
2021/07/26 02:44:02;;;;;;;15.37;12.60;;;15.60;99.90;;;16.82;79.74;93923.50;5027420;28;20287;-72
2021/07/26 02:46:30;;;;;;;12.60;11.40;;;15.70;99.90;;;16.69;79.86;93915.53;5026754;28;20286;-72
2021/07/26 02:48:56;;;;;;;12.20;10.60;;;15.60;99.90;;;16.72;79.77;93923.75;5008783;28;20242;-71
2021/07/26 02:51:25;;;;;;;12.17;10.97;;;15.60;99.90;;;16.69;79.72;93920.88;5027000;28;20524;-72
2021/07/26 02:53:57;;;;;;;11.10;9.97;;;15.60;99.90;;;16.69;79.97;93934.25;5026336;28;20629;-72
2021/07/26 02:56:28;;;;;;;11.47;10.27;;;15.50;99.90;;;16.78;80.10;93935.94;5026585;28;20199;-71
2021/07/26 02:58:54;;;;;;;11.60;10.40;;;15.60;99.90;;;16.80;79.94;93930.28;5024697;28;20206;-71
2021/07/26 03:01:22;;;;;;;11.97;10.77;;;15.60;99.90;;;16.73;79.90;93929.88;5026858;28;20219;-71
2021/07/26 03:03:50;;;;;;;11.07;9.97;;;15.50;99.90;;;16.77;80.05;93936.22;5027014;28;20205;-72
2021/07/26 03:06:18;;;;;;;11.30;10.30;;;15.50;99.90;;;16.83;79.80;93933.13;5026608;28;20262;-71
2021/07/26 03:08:45;;;;;;;13.57;11.03;;;15.60;99.90;;;16.89;79.78;93931.13;5010735;28;20684;-73
2021/07/26 03:11:12;;;;;;;12.33;11.13;;;15.60;99.90;;;16.91;80.16;93939.66;5025778;28;20189;-72
2021/07/26 03:13:40;;;;;;;12.60;11.30;;;15.70;99.90;;;16.96;80.07;93934.19;5005641;28;20724;-71
2021/07/26 03:16:09;;;;;;;11.83;10.63;;;15.80;99.90;;;17.03;80.35;93937.25;5022726;28;20200;-72
2021/07/26 03:18:35;;;;;;;11.67;10.47;;;15.80;99.90;;;17.03;80.03;93939.91;5027845;28;20897;-72
2021/07/26 03:21:02;;;;;;;11.70;10.50;;;15.90;99.90;;;17.04;80.04;93941.50;5009074;28;20586;-71
2021/07/26 03:23:31;;;;;;;11.47;10.10;;;15.90;99.90;;;17.02;80.36;93938.34;5025314;28;20288;-72
2021/07/26 03:25:57;;;;;;;14.17;11.60;;;15.90;99.90;;;17.04;80.32;93936.16;5024752;28;20201;-72
2021/07/26 03:28:23;;;;;;;13.07;11.77;;;15.80;99.90;;;17.06;80.42;93919.75;5015332;28;20672;-73
2021/07/26 03:30:49;;;;;;;14.07;11.90;;;17.70;99.90;;;17.00;80.13;93916.41;5009543;28;20328;-71
2021/07/26 03:33:15;;;;;;;14.20;12.13;;;15.80;99.90;;;16.88;80.15;93900.91;5011427;28;20190;-71
2021/07/26 03:35:41;;;;;;;12.17;10.87;;;15.80;99.90;;;16.93;80.56;93908.81;5024677;28;20280;-73
2021/07/26 03:38:07;;;;;;;12.07;10.93;;;15.80;99.90;;;16.89;80.75;93910.50;5027779;28;20276;-73
2021/07/26 03:40:37;;;;;;;12.67;10.20;;;15.80;99.90;;;16.84;80.45;93924.03;5026333;28;20200;-71
2021/07/26 03:43:05;;;;;;;12.10;10.80;;;15.70;99.90;;;16.78;80.76;93911.84;5010503;28;20200;-72
2021/07/26 03:45:31;;;;;;;14.50;11.80;;;15.70;99.90;;;16.72;80.38;93906.91;5023883;28;20204;-72
2021/07/26 03:47:59;;;;;;;12.60;11.30;;;15.60;99.90;;;16.65;80.39;93911.88;5007446;28;20217;-73
2021/07/26 03:50:26;;;;;;;13.27;11.97;;;15.60;99.90;;;16.62;80.60;93920.53;5025909;28;20207;-72
2021/07/26 03:52:59;;;;;;;13.53;11.97;;;15.50;99.90;;;16.68;80.29;93940.72;5007673;28;20206;-72
2021/07/26 03:55:31;;;;;;;16.70;11.97;;;15.50;99.90;;;16.72;80.73;93933.69;5026503;28;20242;-72
2021/07/26 03:57:58;;;;;;;12.43;10.90;;;15.60;99.90;;;16.78;80.64;93922.56;5008248;28;20214;-72
2021/07/26 04:00:29;;;;;;;11.70;10.50;;;15.60;99.90;;;16.72;80.63;93918.38;5026002;28;20729;-72
2021/07/26 04:03:26;;;;;;;12.63;11.33;;;15.60;99.90;;;16.62;80.62;93915.94;5024606;28;20590;-73
2021/07/26 04:06:06;;;;;;;14.60;12.43;;;15.50;99.90;;;16.57;80.50;93904.56;5013430;28;20221;-73
2021/07/26 04:08:35;;;;;;;12.50;11.20;;;15.40;99.90;;;16.58;80.50;93900.81;5027574;28;20229;-73
2021/07/26 04:13:35;;;;;;;11.93;10.67;;;15.50;99.90;;;16.71;80.81;93902.66;5023785;28;20196;-73
2021/07/26 04:16:01;;;;;;;11.70;10.50;;;15.60;99.90;;;16.68;80.89;93903.25;5007919;28;20233;-72
2021/07/26 04:18:30;;;;;;;14.30;11.37;;;15.50;99.90;;;16.67;80.87;93901.66;5010270;28;20219;-73
2021/07/26 04:21:00;;;;;;;11.77;10.60;;;15.50;99.90;;;16.68;80.77;93906.72;5019898;28;20730;-72
2021/07/26 04:23:26;;;;;;;11.00;9.87;;;15.50;99.90;;;16.68;80.95;93897.91;5007085;28;20203;-74
2021/07/26 04:25:52;;;;;;;11.63;10.40;;;15.50;99.90;;;16.70;80.94;93903.72;5024551;28;20205;-75
2021/07/26 04:28:19;;;;;;;12.43;11.17;;;16.30;99.90;;;16.78;80.81;93908.38;5024591;28;20227;-73
2021/07/26 04:30:45;;;;;;;11.90;10.67;;;;;;;16.81;80.77;93913.13;5007751;28;20693;-73
2021/07/26 04:33:11;;;;;;;12.23;11.03;;;15.70;99.90;;;16.90;80.96;93911.31;5010567;28;20212;-73
2021/07/26 04:35:37;;;;;;;11.60;10.40;;;16.00;99.90;;;16.98;80.82;93915.94;5025613;28;20640;-73
2021/07/26 04:38:03;;;;;;;11.43;10.10;;;15.80;99.90;;;17.05;80.96;93910.97;5024935;28;20204;-73
2021/07/26 04:40:31;;;;;;;10.80;9.47;;;16.00;99.90;;;17.14;80.97;93911.81;5024671;28;20274;-73
2021/07/26 04:42:57;;;;;;;11.03;9.93;;;16.10;99.90;;;17.20;81.18;93915.16;5005774;28;20194;-74
2021/07/26 04:45:24;;;;;;;10.27;9.27;;;16.20;99.90;;;17.32;81.12;93913.53;5023387;28;20271;-74
2021/07/26 04:47:50;;;;;;;11.27;10.03;;;16.30;99.90;;;17.46;81.01;93915.34;5026419;28;20220;-74
2021/07/26 04:50:19;;;;;;;10.77;9.67;;;16.40;99.90;;;17.48;81.19;93908.56;5026112;28;20544;-73
2021/07/26 04:52:47;;;;;;;10.70;9.70;;;16.50;99.90;;;17.56;81.10;93909.75;5025469;28;20187;-71
2021/07/26 04:55:14;;;;;;;10.57;9.43;;;16.50;99.90;;;17.60;81.07;93913.38;5007436;28;20196;-72
2021/07/26 04:57:40;;;;;;;12.30;8.53;;;16.50;99.90;;;17.76;81.19;93909.22;5024010;28;20200;-72
2021/07/26 05:00:07;;;;;;;11.00;9.33;;;16.70;99.90;;;17.76;81.16;93901.94;5024309;28;20716;-71
2021/07/26 05:02:33;;;;;;;10.03;9.10;;;16.60;99.90;;;17.72;81.06;93892.97;5026121;28;20592;-70
2021/07/26 05:05:01;;;;;;;9.97;9.07;;;16.70;99.90;;;17.82;80.90;93902.63;5024937;28;20200;-71
2021/07/26 05:07:27;;;;;;;10.47;8.70;;;16.70;99.90;;;17.90;81.18;93905.31;5030351;28;20787;-72
2021/07/26 05:09:53;;;;;;;9.23;8.33;;;16.80;99.90;;;17.88;81.26;93890.66;5029125;28;20813;-72
2021/07/26 05:12:19;;;;;;;9.80;8.90;;;16.90;99.90;;;17.77;81.16;93908.09;5011291;28;20195;-72
2021/07/26 05:14:49;;;;;;;9.37;8.33;;;16.70;99.90;;;17.76;81.09;93909.22;5028132;28;20216;-72
2021/07/26 05:17:27;;;;;;;10.10;9.10;;;16.70;99.90;;;17.82;80.90;93924.06;5030055;28;20210;-72
2021/07/26 05:19:56;;;;;;;9.57;8.67;;;16.70;99.90;;;17.75;81.12;93921.03;5014145;28;20554;-72
2021/07/26 05:22:22;;;;;;;10.00;9.00;;;16.70;99.90;;;17.76;81.08;93909.22;5029098;28;20285;-72
2021/07/26 05:24:50;;;;;;;10.10;9.03;;;16.70;99.90;;;17.77;80.97;93906.22;5011780;28;20238;-72
2021/07/26 05:27:20;;;;;;;11.00;8.90;;;16.70;99.90;;;17.75;81.16;93897.69;5021391;28;20214;-72
2021/07/26 05:29:47;;;;;;;10.17;9.17;;;16.70;99.90;;;17.54;81.11;93896.59;5025291;28;20195;-73
2021/07/26 05:32:14;;;;;;;11.83;10.63;;;16.50;99.90;;;17.52;81.11;93898.81;5026583;28;20193;-73
2021/07/26 05:34:40;;;;;;;10.70;9.60;;;16.50;99.90;;;17.52;81.22;93914.91;5012504;28;20273;-73
2021/07/26 05:37:07;;;;;;;11.13;9.23;;;16.40;99.90;;;17.57;81.25;93905.94;5012806;28;20205;-72
2021/07/26 05:39:37;;;;;;;9.67;8.77;;;16.50;99.90;;;17.69;81.09;93911.53;5026799;28;20203;-72
2021/07/26 05:42:03;;;;;;;11.93;9.33;;;16.60;99.90;;;17.72;81.03;93908.25;5028397;28;20662;-74
2021/07/26 05:44:31;;;;;;;10.63;9.47;;;16.60;99.90;;;17.81;80.92;93915.22;5027961;28;20200;-73
2021/07/26 05:46:57;;;;;;;9.90;9.00;;;16.80;99.90;;;17.96;80.98;93924.75;5027077;28;20585;-72
2021/07/26 05:49:26;;;;;;;10.63;8.50;;;16.90;99.90;;;18.24;81.12;93917.28;5027765;28;20701;-74
2021/07/26 05:51:52;;;;;;;9.53;8.40;;;17.20;99.90;;;18.48;81.07;93916.84;5026219;28;20966;-71
2021/07/26 05:54:21;;;;;;;9.07;8.17;;;17.40;99.90;;;18.72;80.92;93914.56;5024144;28;20199;-73
2021/07/26 05:56:49;;;;;;;8.63;7.57;;;17.60;99.90;;;18.98;80.89;93922.63;5028233;28;20198;-73
2021/07/26 05:59:16;;;;;;;7.50;6.73;;;17.90;99.90;;;19.26;80.99;93915.84;5026046;28;20305;-73
2021/07/26 06:01:49;;;;;;;8.03;7.30;;;18.20;99.90;;;19.43;80.93;93923.91;5022627;28;20218;-75
2021/07/26 06:04:22;;;;;;;8.10;7.27;;;18.50;99.90;;;19.76;80.72;93924.16;5015726;28;20736;-74
2021/07/26 06:06:53;;;;;;;7.97;6.90;;;18.80;99.90;;;19.90;80.84;93914.00;5009532;28;20219;-72
2021/07/26 06:09:23;;;;;;;8.60;7.70;;;19.00;99.90;;;20.28;80.65;93928.25;5032864;28;20198;-72
2021/07/26 06:11:50;;;;;;;7.97;7.27;;;19.40;99.90;;;20.58;80.74;93922.91;5028019;28;20205;-75
2021/07/26 06:14:17;;;;;;;7.77;6.97;;;19.70;99.90;;;20.73;80.52;93933.88;5027585;28;20192;-75
2021/07/26 06:16:49;;;;;;;7.73;7.03;;;19.90;99.90;;;20.98;80.30;93913.28;5026464;28;20542;-75
2021/07/26 06:19:19;;;;;;;7.57;6.77;;;20.10;99.90;;;21.04;80.43;93908.47;5030935;28;20198;-75
2021/07/26 06:21:51;;;;;;;7.90;6.77;;;20.10;99.90;;;21.03;80.00;93931.94;5034228;28;20176;-77
2021/07/26 06:24:21;;;;;;;6.97;6.37;;;20.20;99.90;;;21.14;79.97;93935.84;5031482;28;20218;-77
2021/07/26 06:26:47;;;;;;;7.37;6.57;;;20.30;99.90;;;21.31;79.95;93924.13;5027051;28;20621;-75
2021/07/26 06:29:14;;;;;;;7.40;6.70;;;20.50;99.90;;;21.45;80.07;93935.44;5026517;28;20224;-75
2021/07/26 06:31:43;;;;;;;6.67;6.07;;;20.60;99.90;;;21.75;79.60;93931.50;5026820;28;20181;-75
2021/07/26 06:34:09;;;;;;;6.83;6.13;;;21.10;99.90;;;22.23;79.53;93947.03;5026668;28;20539;-77
2021/07/26 06:36:37;;;;;;;6.80;6.20;;;21.30;99.90;;;22.69;79.34;93953.16;5028910;28;20188;-72
2021/07/26 06:39:06;;;;;;;7.30;6.37;;;21.90;99.90;;;23.25;79.53;93960.28;5041743;28;20200;-71
2021/07/26 06:41:32;;;;;;;7.03;5.77;;;22.40;99.90;;;23.34;79.17;93920.34;5027057;28;20720;-71
2021/07/26 06:43:59;;;;;;;6.80;6.10;;;22.70;99.90;;;23.44;79.18;93919.91;5011636;28;20210;-72
2021/07/26 06:46:25;;;;;;;6.67;5.97;;;22.90;99.90;;;23.95;78.54;93929.03;5023980;28;20263;-71
2021/07/26 06:48:51;;;;;;;7.00;6.37;;;23.40;99.90;;;24.60;78.48;93928.72;5026157;28;20212;-75
2021/07/26 06:51:17;;;;;;;6.00;5.50;;;23.90;99.90;;;24.68;78.13;93922.34;5030552;28;20185;-75
2021/07/26 06:53:44;;;;;;;6.40;5.70;;;24.30;99.90;;;24.52;78.33;93936.69;5028032;28;20204;-75
2021/07/26 06:56:11;;;;;;;5.50;5.00;;;24.20;99.90;;;25.43;77.89;93986.06;5009931;28;20203;-72
2021/07/26 06:58:41;;;;;;;6.57;5.80;;;25.10;99.90;;;26.05;77.88;93975.31;5025565;28;21546;-73
2021/07/26 07:01:11;;;;;;;5.37;4.90;;;25.50;99.90;;;26.21;77.58;93941.47;5021834;28;20561;-75
2021/07/26 07:03:39;;;;;;;5.37;4.83;;;25.80;99.90;;;26.49;77.26;93968.38;5026087;28;20191;-75
2021/07/26 07:06:33;;;;;;;5.30;4.80;;;26.20;99.90;;;26.18;76.63;93993.84;5024931;28;20741;-76
2021/07/26 07:09:01;;;;;;;5.30;4.63;;;26.00;99.90;;;26.65;76.61;93976.41;5024071;28;20239;-76
2021/07/26 07:11:28;;;;;;;5.27;4.87;;;26.20;99.90;;;26.87;76.44;93959.31;5025843;28;20199;-77
2021/07/26 07:13:56;;;;;;;8.33;4.80;;;26.30;99.90;;;27.06;76.19;93972.84;4996059;28;20187;-75
2021/07/26 07:16:24;;;;;;;5.47;4.97;;;26.30;99.90;;;27.46;75.95;93954.00;5008471;28;20724;-75
2021/07/26 07:18:54;;;;;;;5.00;4.60;;;26.60;99.90;;;27.96;74.90;93981.84;5028006;28;20311;-76
2021/07/26 07:21:29;;;;;;;5.30;4.80;;;27.00;99.90;;;28.21;74.68;93974.75;5024578;28;20220;-72
2021/07/26 07:24:00;;;;;;;5.83;4.43;;;27.40;99.90;;;28.79;74.69;93960.50;5015949;28;20956;-79
2021/07/26 07:26:27;;;;;;;4.50;4.10;;;27.90;99.90;;;28.88;74.12;93937.19;5009479;28;20191;-74
2021/07/26 07:28:53;;;;;;;4.83;3.73;;;28.20;99.90;;;29.21;73.68;93911.66;5030381;28;20683;-74
2021/07/26 07:31:23;;;;;;;5.07;4.57;;;28.70;99.90;;;29.18;73.57;93955.34;5023604;28;20192;-77
2021/07/26 07:33:50;;;;;;;4.93;4.30;;;29.10;99.90;;;28.53;73.33;93915.06;5008799;28;20196;-76
2021/07/26 07:36:16;;;;;;;4.37;3.93;;;28.70;99.90;;;28.29;73.07;93931.97;5035791;28;20992;-73
2021/07/26 07:38:42;;;;;;;4.63;4.23;;;28.60;99.90;;;28.46;72.37;93925.91;5027714;28;20283;-73
2021/07/26 07:41:07;;;;;;;5.33;3.97;;;28.60;99.90;;;28.59;72.43;93986.41;5038111;28;20304;-71
2021/07/26 07:43:33;;;;;;;6.93;4.70;;;28.60;99.90;;;27.29;72.20;93913.66;5008387;28;20655;-71
2021/07/26 07:46:00;;;;;;;5.77;4.70;;;27.50;99.90;;;28.01;72.13;93992.41;5027249;28;20639;-77
2021/07/26 07:48:29;;;;;;;5.10;4.30;;;28.10;99.90;;;28.77;71.64;93930.09;5027205;28;20231;-75
2021/07/26 07:50:56;;;;;;;4.43;4.03;;;28.90;99.90;;;29.04;71.39;93967.72;5009768;28;20245;-72
2021/07/26 07:53:23;;;;;;;4.13;3.70;;;29.30;99.90;;;29.08;70.92;93915.09;5026053;28;20283;-73
2021/07/26 07:55:51;;;;;;;5.87;4.70;;;29.70;99.90;;;28.60;70.92;93925.25;5025157;28;20185;-74
2021/07/26 07:58:18;;;;;;;5.57;4.83;;;29.20;99.90;;;28.18;70.28;93920.19;5026195;28;20204;-72
2021/07/26 08:00:48;;;;;;;6.20;5.70;;;28.90;99.90;;;26.95;70.83;93898.41;4992186;28;20197;-72
2021/07/26 08:03:17;;;;;;;6.83;5.70;;;27.70;99.90;;;25.98;70.46;93886.31;5024431;28;20194;-73
2021/07/26 08:05:43;;;;;;;7.07;5.93;;;26.50;99.90;;;25.06;70.17;93924.38;5010751;28;20273;-75
2021/07/26 08:08:09;;;;;;;7.17;6.53;;;25.40;99.90;;;24.70;70.22;93920.06;5008337;28;20956;-74
2021/07/26 08:10:35;;;;;;;8.27;6.43;;;24.80;99.90;;;24.05;70.32;93910.69;4992791;28;20190;-74
2021/07/26 08:13:02;;;;;;;6.20;5.60;;;24.00;99.90;;;23.85;69.90;93961.22;5007860;28;20219;-74
2021/07/26 08:15:30;;;;;;;6.67;5.87;;;23.70;99.90;;;23.96;69.93;93946.06;5022652;28;20208;-74
2021/07/26 08:17:58;;;;;;;8.57;6.63;;;23.70;99.90;;;23.86;70.18;93947.34;5040343;28;20206;-74
2021/07/26 08:20:27;;;;;;;7.53;6.23;;;23.50;99.90;;;23.79;70.10;93925.50;5028204;28;20205;-74
2021/07/26 08:22:53;;;;;;;6.60;5.90;;;23.30;99.90;;;24.57;69.60;93983.63;5008471;28;20299;-74
2021/07/26 08:25:18;;;;;;;8.03;6.40;;;23.80;99.90;;;24.86;69.96;93962.31;5009318;28;20287;-74
2021/07/26 08:27:55;;;;;;;7.87;6.40;;;24.20;99.90;;;24.76;69.63;93973.66;5024728;28;20228;-74
2021/07/26 08:30:27;;;;;;;6.70;6.10;;;24.30;99.90;;;24.62;69.63;93962.47;5025032;28;20664;-72
2021/07/26 08:32:56;;;;;;;6.87;6.17;;;24.00;99.90;;;24.84;69.47;93999.06;5035699;28;20205;-73
2021/07/26 08:35:22;;;;;;;126.67;21.27;;;24.20;99.90;;;25.36;69.12;93975.06;5023667;28;20203;-73
2021/07/26 08:37:49;;;;;;;67.57;13.50;;;24.60;99.90;;;25.84;69.31;93972.97;5008737;28;20266;-73
2021/07/26 08:40:20;;;;;;;15.50;7.20;;;25.30;99.90;;;25.24;69.14;93929.06;5026238;28;20201;-73
2021/07/26 08:42:46;;;;;;;7.73;7.03;;;24.90;99.90;;;24.86;69.20;93945.25;5024254;28;20193;-74
2021/07/26 08:45:12;;;;;;;7.03;6.33;;;24.70;99.90;;;24.58;69.11;93996.06;5026381;28;20219;-75
2021/07/26 08:47:44;;;;;;;8.13;6.40;;;24.30;99.90;;;24.65;69.19;93993.50;4994080;28;20216;-75
2021/07/26 08:50:13;;;;;;;7.07;6.40;;;24.20;99.90;;;24.89;68.97;94004.19;5024556;28;20687;-76
2021/07/26 08:52:44;;;;;;;6.83;6.17;;;24.30;99.90;;;25.48;68.88;94007.47;5029301;28;20619;-76
2021/07/26 08:55:13;;;;;;;6.70;6.03;;;24.80;99.90;;;25.68;68.82;94043.66;5027694;28;20215;-73
2021/07/26 08:57:47;;;;;;;6.57;5.87;;;24.90;99.90;;;26.45;68.60;94058.03;5028241;28;20188;-74
2021/07/26 09:00:16;;;;;;;6.40;5.80;;;25.80;99.90;;;26.51;68.62;94018.53;5008979;28;20191;-75
2021/07/26 09:02:43;;;;;;;6.53;5.70;;;26.20;99.90;;;26.63;68.31;93962.38;5027519;28;20273;-74
2021/07/26 09:05:11;;;;;;;7.20;6.47;;;26.60;99.90;;;25.63;68.11;93951.59;5026910;28;20588;-75
2021/07/26 09:07:43;;;;;;;7.40;6.73;;;25.80;99.90;;;24.83;68.39;93997.47;5025992;28;20219;-75
2021/07/26 09:10:19;;;;;;;6.20;5.60;;;24.90;99.90;;;24.87;67.93;94018.13;5029071;28;20636;-80
2021/07/26 09:12:48;;;;;;;6.60;5.90;;;24.80;99.90;;;24.59;67.95;93987.56;5015196;28;20192;-83
2021/07/26 09:15:24;;;;;;;7.83;5.87;;;24.40;99.90;;;24.69;68.04;93997.88;5025367;28;20196;-74
2021/07/26 09:17:54;;;;;;;6.87;5.33;;;24.40;99.90;;;24.46;67.91;94002.34;5028371;28;20200;-74
2021/07/26 09:20:20;;;;;;;5.70;5.20;;;24.10;99.90;;;24.82;67.65;93998.56;5013130;28;20595;-77
2021/07/26 09:22:48;;;;;;;6.17;5.57;;;24.40;99.90;;;24.49;67.81;93990.78;5038631;28;20211;-77
2021/07/26 09:25:28;;;;;;;5.87;5.30;;;24.00;99.90;;;24.70;67.51;94037.44;5033761;28;20196;-75
2021/07/26 09:28:25;;;;;;;5.70;5.20;;;24.10;99.90;;;25.23;67.60;94011.59;5025829;28;20292;-76
2021/07/26 09:30:53;;;;;;;5.73;5.17;;;24.60;99.90;;;25.41;67.34;93980.22;5018372;28;20237;-76
2021/07/26 09:33:28;;;;;;;7.40;5.77;;;24.90;99.90;;;25.89;67.40;94025.06;5026242;28;20197;-75
2021/07/26 09:36:19;;;;;;;5.47;4.97;;;25.20;99.90;;;26.28;67.03;93985.09;5027029;28;20200;-78
2021/07/26 09:39:03;;;;;;;5.63;5.13;;;25.70;99.90;;;27.18;66.92;94023.53;5011046;28;20209;-77
2021/07/26 09:41:48;;;;;;;7.47;5.60;;;26.60;99.90;;;27.46;66.62;94003.00;5026318;28;20224;-76
2021/07/26 09:44:21;;;;;;;6.57;6.00;;;27.10;99.90;;;29.11;66.32;94067.25;5014814;28;20201;-74
2021/07/26 09:46:47;;;;;;;7.40;6.20;;;28.60;99.90;;;30.13;66.13;93971.47;5010386;28;20203;-76
2021/07/26 09:49:18;;;;;;;7.37;6.67;;;30.20;99.90;;;29.71;65.90;93961.13;5011167;28;20251;-77
2021/07/26 09:52:08;;;;;;;6.30;5.80;;;30.20;99.90;;;28.93;65.90;93991.44;5024088;28;20196;-74
2021/07/26 09:54:52;;;;;;;6.63;6.13;;;29.50;99.90;;;28.34;65.71;93984.22;5008292;28;20225;-76
2021/07/26 09:57:23;;;;;;;6.63;6.00;;;29.00;99.90;;;27.96;65.75;93955.38;5011942;28;20197;-75
2021/07/26 09:59:52;;;;;;;7.60;6.07;;;28.50;99.90;;;27.68;65.38;93965.13;5031102;28;20584;-75
2021/07/26 10:02:24;;;;;;;6.13;5.57;;;28.20;99.90;;;27.75;65.23;93978.84;5044465;28;20200;-75
2021/07/26 10:04:51;;;;;;;6.97;5.47;;;28.10;99.90;;;27.87;64.94;93952.13;5027674;28;20199;-73
2021/07/26 10:07:21;;;;;;;7.40;6.67;;;28.10;99.90;;;28.20;64.53;94026.94;5043259;28;20208;-74
2021/07/26 10:09:48;;;;;;;6.90;6.20;;;28.10;99.90;;;28.73;64.75;93978.41;5029913;28;20283;-75
2021/07/26 10:12:23;;;;;;;6.47;5.87;;;28.50;99.90;;;30.17;64.39;94074.25;5004841;28;20671;-73
2021/07/26 10:14:50;;;;;;;7.50;6.00;;;29.80;99.90;;;34.06;63.60;94174.31;5027893;28;20199;-74
2021/07/26 10:17:16;;;;;;;5.57;5.03;;;33.30;99.90;;;36.37;62.89;94047.41;5026660;28;20197;-77
2021/07/26 10:19:43;;;;;;;5.77;5.17;;;36.10;99.90;;;36.60;62.68;93996.09;5028279;28;20196;-78
2021/07/26 10:22:16;;;;;;;8.40;5.03;;;37.40;98.40;;;35.86;62.23;94004.59;5028768;28;20207;-79
2021/07/26 10:25:00;;;;;;;5.75;4.70;;;37.50;95.80;;;35.45;61.48;93995.88;5011069;28;20196;-79
2021/07/26 10:27:35;;;;;;;5.60;5.20;;;37.60;93.50;;;33.90;61.49;93913.50;5025547;28;20220;-78